createdAt,value
2022-08-07T00:00:28.080Z,20.70
2022-08-07T00:03:14.926Z,20.64
2022-08-07T00:06:02.316Z,20.61
2022-08-07T00:08:49.203Z,20.58
2022-08-07T00:11:48.094Z,20.55
2022-08-07T00:14:44.327Z,20.49
2022-08-07T00:17:39.664Z,20.46
2022-08-07T00:20:29.867Z,20.41
2022-08-07T00:23:24.236Z,20.36
2022-08-07T00:26:18.717Z,20.32
2022-08-07T00:29:19.790Z,20.29
2022-08-07T00:32:15.941Z,20.18
2022-08-07T00:35:02.763Z,20.19
2022-08-07T00:37:51.665Z,20.16
2022-08-07T00:40:40.990Z,20.14
2022-08-07T00:44:01.111Z,20.12
2022-08-07T00:46:34.882Z,20.09
2022-08-07T00:49:24.919Z,20.04
2022-08-07T00:52:28.615Z,19.99
2022-08-07T00:56:02.910Z,19.94
2022-08-07T00:58:49.600Z,19.85
2022-08-07T01:01:44.434Z,19.78
2022-08-07T01:04:43.376Z,19.77
2022-08-07T01:07:40.095Z,19.74
2022-08-07T01:13:12.648Z,19.67
2022-08-07T01:16:12.961Z,19.60
2022-08-07T01:19:25.493Z,19.53
2022-08-07T01:22:29.406Z,19.50
2022-08-07T01:25:40.326Z,19.46
2022-08-07T01:28:31.446Z,19.42
2022-08-07T01:31:42.725Z,19.41
2022-08-07T01:34:35.962Z,19.36
2022-08-07T01:37:36.296Z,19.35
2022-08-07T01:41:26.372Z,19.25
2022-08-07T01:44:07.318Z,19.18
2022-08-07T01:46:54.941Z,19.19
2022-08-07T01:52:49.661Z,19.13
2022-08-07T01:55:45.736Z,19.07
2022-08-07T01:58:40.845Z,19.05
2022-08-07T02:01:59.708Z,19.02
2022-08-07T02:05:05.572Z,18.99
2022-08-07T02:07:55.867Z,18.96
2022-08-07T02:10:43.767Z,18.93
2022-08-07T02:13:56.347Z,18.91
2022-08-07T02:16:47.601Z,18.87
2022-08-07T02:20:05.035Z,18.84
2022-08-07T02:22:44.898Z,18.80
2022-08-07T02:29:48.734Z,18.69
2022-08-07T02:33:00.438Z,18.62
2022-08-07T02:36:29.774Z,18.62
2022-08-07T02:40:02.075Z,18.55
2022-08-07T02:43:00.631Z,18.47
2022-08-07T02:46:00.385Z,18.46
2022-08-07T02:48:55.026Z,18.42
2022-08-07T02:51:49.932Z,18.36
2022-08-07T02:54:47.126Z,18.24
2022-08-07T02:58:04.358Z,18.25
2022-08-07T03:00:58.735Z,18.19
2022-08-07T03:03:52.561Z,18.18
2022-08-07T03:06:44.825Z,18.10
2022-08-07T03:09:42.368Z,18.10
2022-08-07T03:12:33.879Z,18.03
2022-08-07T03:15:30.346Z,17.98
2022-08-07T03:18:54.392Z,17.91
2022-08-07T03:22:18.851Z,17.84
2022-08-07T03:25:17.481Z,17.83
2022-08-07T03:31:50.034Z,17.67
2022-08-07T03:34:40.640Z,17.65
2022-08-07T03:37:46.495Z,17.55
2022-08-07T03:40:44.244Z,17.53
2022-08-07T03:43:36.065Z,17.50
2022-08-07T03:47:13.003Z,17.47
2022-08-07T03:50:11.034Z,17.41
2022-08-07T04:00:04.138Z,17.23
2022-08-07T04:03:15.865Z,17.19
2022-08-07T04:06:02.929Z,17.16
2022-08-07T04:13:02.627Z,17.08
2022-08-07T04:15:49.624Z,17.08
2022-08-07T04:18:59.643Z,17.06
2022-08-07T04:21:59.526Z,17.05
2022-08-07T04:24:48.251Z,17.03
2022-08-07T04:27:44.126Z,17.01
2022-08-07T04:30:55.634Z,16.98
2022-08-07T04:33:46.757Z,16.97
2022-08-07T04:36:43.653Z,16.96
2022-08-07T04:39:35.637Z,16.91
2022-08-07T04:42:28.631Z,16.92
2022-08-07T04:45:19.719Z,16.89
2022-08-07T04:48:38.007Z,16.90
2022-08-07T04:51:31.922Z,16.87
2022-08-07T04:54:34.903Z,16.85
2022-08-07T04:58:24.120Z,16.84
2022-08-07T05:01:56.841Z,16.76
2022-08-07T05:04:54.888Z,16.74
2022-08-07T05:08:00.581Z,16.74
2022-08-07T05:10:51.266Z,16.73
2022-08-07T05:14:53.904Z,16.72
2022-08-07T05:17:12.001Z,16.70
2022-08-07T05:20:11.343Z,16.68
2022-08-07T05:23:15.632Z,16.68
2022-08-07T05:26:13.328Z,16.61
2022-08-07T05:29:08.197Z,16.65
2022-08-07T05:31:57.598Z,16.65
2022-08-07T05:34:45.740Z,16.66
2022-08-07T05:37:40.880Z,16.63
2022-08-07T05:40:29.394Z,16.61
2022-08-07T05:43:17.002Z,16.60
2022-08-07T05:46:05.627Z,16.59
2022-08-07T05:48:59.227Z,16.59
2022-08-07T05:51:49.342Z,16.56
2022-08-07T05:54:53.244Z,16.55
2022-08-07T05:57:46.353Z,16.56
2022-08-07T06:00:35.138Z,16.55
2022-08-07T06:03:23.240Z,16.56
2022-08-07T06:06:17.426Z,16.56
2022-08-07T06:09:06.371Z,16.56
2022-08-07T06:12:07.163Z,16.58
2022-08-07T06:14:55.005Z,16.57
2022-08-07T06:17:53.552Z,16.58
2022-08-07T06:20:50.482Z,16.63
2022-08-07T06:24:37.566Z,16.67
2022-08-07T06:26:59.692Z,16.70
2022-08-07T06:29:52.530Z,16.74
2022-08-07T06:32:44.184Z,16.79
2022-08-07T06:35:45.477Z,16.84
2022-08-07T06:38:35.175Z,16.90
2022-08-07T06:42:02.604Z,16.94
2022-08-07T06:44:45.327Z,17.00
2022-08-07T06:47:48.090Z,17.04
2022-08-07T06:50:47.855Z,17.11
2022-08-07T06:55:28.411Z,17.19
2022-08-07T06:56:49.676Z,17.20
2022-08-07T07:00:14.420Z,17.20
2022-08-07T07:02:57.693Z,17.27
2022-08-07T07:06:02.625Z,17.34
2022-08-07T07:08:52.942Z,17.42
2022-08-07T07:12:08.552Z,17.52
2022-08-07T07:15:03.507Z,17.61
2022-08-07T07:17:53.532Z,17.68
2022-08-07T07:21:04.087Z,17.79
2022-08-07T07:24:09.952Z,17.89
2022-08-07T07:27:00.318Z,17.97
2022-08-07T07:30:09.206Z,18.06
2022-08-07T07:32:58.356Z,18.17
2022-08-07T07:36:04.059Z,18.26
2022-08-07T07:38:52.092Z,18.36
2022-08-07T07:42:01.798Z,18.46
2022-08-07T07:44:49.639Z,18.56
2022-08-07T07:47:52.059Z,18.64
2022-08-07T07:50:40.375Z,18.75
2022-08-07T07:53:28.551Z,18.85
2022-08-07T07:56:30.193Z,18.96
2022-08-07T07:59:20.845Z,19.06
2022-08-07T08:02:34.274Z,19.15
2022-08-07T08:05:23.793Z,19.24
2022-08-07T08:08:36.934Z,19.34
2022-08-07T08:11:47.185Z,19.43
2022-08-07T08:14:36.499Z,19.53
2022-08-07T08:17:56.683Z,19.63
2022-08-07T08:20:33.173Z,19.73
2022-08-07T08:23:42.457Z,19.84
2022-08-07T08:26:50.551Z,19.96
2022-08-07T08:29:54.584Z,20.08
2022-08-07T08:32:52.984Z,20.19
2022-08-07T08:35:47.089Z,20.27
2022-08-07T08:38:42.325Z,20.37
2022-08-07T08:41:56.876Z,20.48
2022-08-07T08:45:13.218Z,20.63
2022-08-07T08:48:03.443Z,20.72
2022-08-07T08:50:55.618Z,20.78
2022-08-07T08:54:07.299Z,20.87
2022-08-07T08:56:54.843Z,21.00
2022-08-07T08:59:52.605Z,21.09
2022-08-07T09:02:59.355Z,21.21
2022-08-07T09:06:36.609Z,21.33
2022-08-07T09:09:49.039Z,21.47
2022-08-07T09:13:02.914Z,21.54
2022-08-07T09:16:20.309Z,21.60
2022-08-07T09:19:51.289Z,21.66
2022-08-07T09:24:33.732Z,21.78
2022-08-07T09:26:09.891Z,21.86
2022-08-07T09:30:05.813Z,21.95
2022-08-07T09:32:54.600Z,22.00
2022-08-07T09:36:01.255Z,22.00
2022-08-07T09:39:52.687Z,22.13
2022-08-07T09:42:41.892Z,22.29
2022-08-07T09:47:52.710Z,22.43
2022-08-07T09:50:00.852Z,22.56
2022-08-07T09:52:53.734Z,22.70
2022-08-07T09:56:05.467Z,22.82
2022-08-07T09:59:35.675Z,22.96
2022-08-07T10:02:55.122Z,23.10
2022-08-07T10:06:00.292Z,23.20
2022-08-07T10:09:58.975Z,23.29
2022-08-07T10:12:52.972Z,23.38
2022-08-07T10:15:46.939Z,23.46
2022-08-07T10:18:55.278Z,23.59
2022-08-07T10:22:33.760Z,23.73
2022-08-07T10:25:42.387Z,23.85
2022-08-07T10:28:38.414Z,23.96
2022-08-07T10:31:38.996Z,24.09
2022-08-07T10:34:38.375Z,24.19
2022-08-07T10:38:00.948Z,24.30
2022-08-07T10:41:45.922Z,24.40
2022-08-07T10:44:38.576Z,24.45
2022-08-07T10:47:53.634Z,24.52
2022-08-07T10:50:50.372Z,24.62
2022-08-07T10:54:00.251Z,24.73
2022-08-07T10:57:13.704Z,24.83
2022-08-07T11:00:36.607Z,24.94
2022-08-07T11:03:28.046Z,25.08
2022-08-07T11:06:31.332Z,25.19
2022-08-07T11:10:07.909Z,25.27
2022-08-07T11:12:37.992Z,25.38
2022-08-07T11:15:32.252Z,25.47
2022-08-07T11:18:50.909Z,25.55
2022-08-07T11:22:31.605Z,25.60
2022-08-07T11:25:27.189Z,25.62
2022-08-07T11:28:35.822Z,25.72
2022-08-07T11:31:26.894Z,25.76
2022-08-07T11:34:20.925Z,25.81
2022-08-07T11:37:19.921Z,25.89
2022-08-07T11:40:19.245Z,25.95
2022-08-07T11:43:16.846Z,26.03
2022-08-07T11:46:32.593Z,26.06
2022-08-07T11:50:32.436Z,26.15
2022-08-07T11:53:21.836Z,26.15
2022-08-07T11:56:42.706Z,26.28
2022-08-07T12:00:10.940Z,26.34
2022-08-07T12:03:08.465Z,26.43
2022-08-07T12:06:37.402Z,26.50
2022-08-07T12:10:05.919Z,26.57
2022-08-07T12:12:59.486Z,26.63
2022-08-07T12:16:06.127Z,26.68
2022-08-07T12:19:10.688Z,26.72
2022-08-07T12:22:39.480Z,26.75
2022-08-07T12:26:05.854Z,26.79
2022-08-07T12:29:13.483Z,26.83
2022-08-07T12:32:29.315Z,26.88
2022-08-07T12:35:17.519Z,26.93
2022-08-07T12:38:11.630Z,26.98
2022-08-07T12:41:49.323Z,27.02
2022-08-07T12:44:46.754Z,27.05
2022-08-07T12:47:43.939Z,27.07
2022-08-07T12:50:40.176Z,27.10
2022-08-07T12:54:24.448Z,27.13
2022-08-07T12:56:55.088Z,27.15
2022-08-07T12:59:54.196Z,27.19
2022-08-07T13:02:57.611Z,27.23
2022-08-07T13:06:27.119Z,27.26
2022-08-07T13:10:21.748Z,27.29
2022-08-07T13:12:51.859Z,27.35
2022-08-07T13:15:51.945Z,27.40
2022-08-07T13:19:11.382Z,27.43
2022-08-07T13:22:29.134Z,27.44
2022-08-07T13:25:41.784Z,27.50
2022-08-07T13:28:54.264Z,27.50
2022-08-07T13:32:32.012Z,27.57
2022-08-07T13:35:59.654Z,27.65
2022-08-07T13:39:02.081Z,27.65
2022-08-07T13:41:51.153Z,27.68
2022-08-07T13:44:42.553Z,27.77
2022-08-07T13:48:06.585Z,27.79
2022-08-07T13:51:01.184Z,27.83
2022-08-07T13:54:16.436Z,27.88
2022-08-07T13:57:23.791Z,27.96
2022-08-07T14:00:13.386Z,28.01
2022-08-07T14:03:13.826Z,28.03
2022-08-07T14:06:16.510Z,28.09
2022-08-07T14:09:04.955Z,28.14
2022-08-07T14:12:10.565Z,28.20
2022-08-07T14:15:07.008Z,28.19
2022-08-07T14:18:24.332Z,28.28
2022-08-07T14:21:20.823Z,28.32
2022-08-07T14:24:29.293Z,28.36
2022-08-07T14:28:10.445Z,28.39
2022-08-07T14:30:40.690Z,28.44
2022-08-07T14:33:45.033Z,28.49
2022-08-07T14:36:32.773Z,28.52
2022-08-07T14:40:15.848Z,28.53
2022-08-07T14:43:55.876Z,28.54
2022-08-07T14:45:49.622Z,28.58
2022-08-07T14:48:38.351Z,28.63
2022-08-07T14:51:28.026Z,28.66
2022-08-07T14:54:44.480Z,28.70
2022-08-07T14:57:58.812Z,28.71
2022-08-07T15:00:53.211Z,28.72
2022-08-07T15:03:52.150Z,28.76
2022-08-07T15:06:47.927Z,28.79
2022-08-07T15:09:59.833Z,28.81
2022-08-07T15:13:38.874Z,28.79
2022-08-07T15:20:30.654Z,28.79
2022-08-07T15:22:58.290Z,28.78
2022-08-07T15:25:58.453Z,28.77
2022-08-07T15:28:53.563Z,28.79
2022-08-07T15:31:58.144Z,28.82
2022-08-07T15:38:59.336Z,28.73
2022-08-07T15:42:47.838Z,28.69
2022-08-07T15:45:58.116Z,28.67
2022-08-07T15:49:15.417Z,28.65
2022-08-07T15:52:30.200Z,28.66
2022-08-07T15:56:01.738Z,28.58
2022-08-07T15:59:16.363Z,28.59
2022-08-07T16:11:41.836Z,28.42
2022-08-07T16:15:57.257Z,28.42
2022-08-07T16:18:55.789Z,28.39
2022-08-07T16:22:05.019Z,28.37
2022-08-07T16:25:02.210Z,28.36
2022-08-07T16:30:07.194Z,28.34
2022-08-07T16:32:33.063Z,28.30
2022-08-07T16:35:58.887Z,28.18
2022-08-07T16:39:06.075Z,28.05
2022-08-07T16:42:36.587Z,27.92
2022-08-07T16:47:02.802Z,27.86
2022-08-07T16:50:28.672Z,27.76
2022-08-07T16:54:02.945Z,27.72
2022-08-07T16:56:57.368Z,27.71
2022-08-07T17:00:05.955Z,27.68
2022-08-07T17:03:09.326Z,27.72
2022-08-07T17:06:31.413Z,27.73
2022-08-07T17:10:08.114Z,27.67
2022-08-07T17:13:08.416Z,27.70
2022-08-07T17:16:11.946Z,27.67
2022-08-07T17:19:18.195Z,27.62
2022-08-07T17:22:38.804Z,27.53
2022-08-07T17:26:53.896Z,27.55
2022-08-07T17:30:57.814Z,27.45
2022-08-07T17:34:10.311Z,27.37
2022-08-07T17:38:06.439Z,27.34
2022-08-07T17:40:50.515Z,27.30
2022-08-07T17:44:14.165Z,27.26
2022-08-07T17:47:57.732Z,27.22
2022-08-07T17:50:58.435Z,27.22
2022-08-07T17:54:11.628Z,27.17
2022-08-07T18:02:31.047Z,27.06
2022-08-07T18:06:37.272Z,27.01
2022-08-07T18:10:05.806Z,26.93
2022-08-07T18:13:40.670Z,26.93
2022-08-07T18:17:07.893Z,26.89
2022-08-07T18:21:06.439Z,26.80
2022-08-07T18:24:40.260Z,26.79
2022-08-07T18:28:57.831Z,26.74
2022-08-07T18:32:08.955Z,26.69
2022-08-07T18:35:51.538Z,26.66
2022-08-07T18:40:07.412Z,26.59
2022-08-07T18:43:15.206Z,26.51
2022-08-07T18:46:25.669Z,26.49
2022-08-07T18:50:31.820Z,26.47
2022-08-07T18:53:37.001Z,26.42
2022-08-07T18:57:23.350Z,26.33
2022-08-07T19:01:00.754Z,26.31
2022-08-07T19:04:28.174Z,26.21
2022-08-07T19:07:51.738Z,26.19
2022-08-07T19:11:35.244Z,26.15
2022-08-07T21:25:12.955Z,24.05
2022-08-07T22:40:46.760Z,22.98
2022-08-07T23:08:22.161Z,22.44
2022-08-07T23:11:28.948Z,22.42
